sensor_id;sensor_type;location;lat;lon;timestamp;pressure;altitude;pressure_sealevel;temperature;humidity
14232;BME280;7200;52.194;9.900;2023-04-22T00:00:09;99847.94;;;13.31;100.00
14232;BME280;7200;52.194;9.900;2023-04-22T00:02:36;99837.78;;;13.39;100.00
14232;BME280;7200;52.194;9.900;2023-04-22T00:05:02;99830.31;;;13.46;100.00
14232;BME280;7200;52.194;9.900;2023-04-22T00:07:28;99835.44;;;13.49;100.00
14232;BME280;7200;52.194;9.900;2023-04-22T00:09:53;99840.19;;;13.58;100.00
14232;BME280;7200;52.194;9.900;2023-04-22T00:12:18;99821.97;;;13.52;100.00
14232;BME280;7200;52.194;9.900;2023-04-22T00:14:44;99781.94;;;13.27;100.00
14232;BME280;7200;52.194;9.900;2023-04-22T00:17:09;99827.06;;;13.41;100.00
14232;BME280;7200;52.194;9.900;2023-04-22T00:19:35;99800.56;;;13.25;100.00
14232;BME280;7200;52.194;9.900;2023-04-22T00:22:01;99781.88;;;13.12;100.00
14232;BME280;7200;52.194;9.900;2023-04-22T00:24:27;99801.25;;;13.13;100.00
14232;BME280;7200;52.194;9.900;2023-04-22T00:26:52;99769.34;;;12.84;100.00
14232;BME280;7200;52.194;9.900;2023-04-22T00:29:17;99786.63;;;12.75;100.00
14232;BME280;7200;52.194;9.900;2023-04-22T00:31:42;99814.72;;;12.78;100.00
14232;BME280;7200;52.194;9.900;2023-04-22T00:34:08;99819.94;;;12.79;100.00
14232;BME280;7200;52.194;9.900;2023-04-22T00:36:33;99812.84;;;12.80;100.00
14232;BME280;7200;52.194;9.900;2023-04-22T00:38:58;99823.00;;;12.88;100.00
14232;BME280;7200;52.194;9.900;2023-04-22T00:41:24;99760.91;;;12.61;100.00
14232;BME280;7200;52.194;9.900;2023-04-22T00:43:50;99782.16;;;12.60;100.00
14232;BME280;7200;52.194;9.900;2023-04-22T00:46:17;99805.41;;;12.55;100.00
14232;BME280;7200;52.194;9.900;2023-04-22T00:48:44;99818.38;;;12.59;100.00
14232;BME280;7200;52.194;9.900;2023-04-22T00:51:09;99813.41;;;12.53;100.00
14232;BME280;7200;52.194;9.900;2023-04-22T00:53:34;99800.94;;;12.55;100.00
14232;BME280;7200;52.194;9.900;2023-04-22T00:56:00;99809.00;;;12.70;100.00
14232;BME280;7200;52.194;9.900;2023-04-22T00:58:27;99820.50;;;12.69;100.00
14232;BME280;7200;52.194;9.900;2023-04-22T01:00:53;99806.25;;;12.71;100.00
14232;BME280;7200;52.194;9.900;2023-04-22T01:03:19;99798.06;;;12.76;100.00
14232;BME280;7200;52.194;9.900;2023-04-22T01:05:47;99800.19;;;12.85;100.00
14232;BME280;7200;52.194;9.900;2023-04-22T01:08:12;99805.41;;;12.71;100.00
14232;BME280;7200;52.194;9.900;2023-04-22T01:10:38;99794.81;;;12.55;100.00
14232;BME280;7200;52.194;9.900;2023-04-22T01:13:04;99829.72;;;12.61;100.00
14232;BME280;7200;52.194;9.900;2023-04-22T01:15:30;99817.44;;;12.76;100.00
14232;BME280;7200;52.194;9.900;2023-04-22T01:17:55;99816.59;;;12.76;100.00
14232;BME280;7200;52.194;9.900;2023-04-22T01:20:21;99807.16;;;12.54;100.00
14232;BME280;7200;52.194;9.900;2023-04-22T01:22:47;99778.06;;;12.22;100.00
14232;BME280;7200;52.194;9.900;2023-04-22T01:25:14;99787.19;;;11.99;100.00
14232;BME280;7200;52.194;9.900;2023-04-22T01:27:40;99808.41;;;11.98;100.00
14232;BME280;7200;52.194;9.900;2023-04-22T01:30:06;99830.06;;;12.22;100.00
14232;BME280;7200;52.194;9.900;2023-04-22T01:32:32;99811.56;;;12.22;100.00
14232;BME280;7200;52.194;9.900;2023-04-22T01:34:57;99768.06;;;11.77;100.00
14232;BME280;7200;52.194;9.900;2023-04-22T01:37:23;99796.84;;;11.83;100.00
14232;BME280;7200;52.194;9.900;2023-04-22T01:39:49;99801.75;;;11.91;100.00
14232;BME280;7200;52.194;9.900;2023-04-22T01:42:14;99809.50;;;11.76;100.00
14232;BME280;7200;52.194;9.900;2023-04-22T01:44:40;99806.53;;;11.82;100.00
14232;BME280;7200;52.194;9.900;2023-04-22T01:47:05;99821.88;;;11.93;100.00
14232;BME280;7200;52.194;9.900;2023-04-22T01:49:31;99792.16;;;11.88;100.00
14232;BME280;7200;52.194;9.900;2023-04-22T01:51:57;99791.16;;;11.73;100.00
14232;BME280;7200;52.194;9.900;2023-04-22T01:54:22;99785.75;;;11.59;100.00
14232;BME280;7200;52.194;9.900;2023-04-22T01:56:53;99800.56;;;11.61;100.00
14232;BME280;7200;52.194;9.900;2023-04-22T01:59:20;99831.69;;;11.91;100.00
14232;BME280;7200;52.194;9.900;2023-04-22T02:01:45;99817.72;;;12.05;100.00
14232;BME280;7200;52.194;9.900;2023-04-22T02:04:11;99778.47;;;11.97;100.00
14232;BME280;7200;52.194;9.900;2023-04-22T02:06:36;99784.22;;;11.88;100.00
14232;BME280;7200;52.194;9.900;2023-04-22T02:09:02;99807.16;;;12.05;100.00
14232;BME280;7200;52.194;9.900;2023-04-22T02:11:27;99786.97;;;12.04;100.00
14232;BME280;7200;52.194;9.900;2023-04-22T02:13:53;99801.47;;;12.13;100.00
14232;BME280;7200;52.194;9.900;2023-04-22T02:16:18;99803.47;;;12.25;100.00
14232;BME280;7200;52.194;9.900;2023-04-22T02:18:43;99794.28;;;12.32;100.00
14232;BME280;7200;52.194;9.900;2023-04-22T02:21:09;99794.97;;;12.36;100.00
14232;BME280;7200;52.194;9.900;2023-04-22T02:23:35;99791.13;;;12.41;100.00
14232;BME280;7200;52.194;9.900;2023-04-22T02:26:00;99768.66;;;12.33;100.00
14232;BME280;7200;52.194;9.900;2023-04-22T02:28:27;99779.06;;;12.20;100.00
14232;BME280;7200;52.194;9.900;2023-04-22T02:30:53;99759.66;;;12.03;100.00
14232;BME280;7200;52.194;9.900;2023-04-22T02:33:18;99776.19;;;12.07;100.00
14232;BME280;7200;52.194;9.900;2023-04-22T02:35:43;99750.34;;;11.79;100.00
14232;BME280;7200;52.194;9.900;2023-04-22T02:38:09;99769.84;;;11.94;100.00
14232;BME280;7200;52.194;9.900;2023-04-22T02:40:35;99786.34;;;11.99;100.00
14232;BME280;7200;52.194;9.900;2023-04-22T02:43:00;99779.19;;;12.01;100.00
14232;BME280;7200;52.194;9.900;2023-04-22T02:45:25;99795.25;;;12.14;100.00
14232;BME280;7200;52.194;9.900;2023-04-22T02:47:50;99776.47;;;12.02;100.00
14232;BME280;7200;52.194;9.900;2023-04-22T02:50:16;99781.69;;;12.04;100.00
14232;BME280;7200;52.194;9.900;2023-04-22T02:52:41;99769.16;;;11.90;100.00
14232;BME280;7200;52.194;9.900;2023-04-22T02:55:07;99773.91;;;11.83;100.00
14232;BME280;7200;52.194;9.900;2023-04-22T02:57:32;99783.53;;;11.84;100.00
14232;BME280;7200;52.194;9.900;2023-04-22T02:59:58;99777.88;;;11.75;100.00
14232;BME280;7200;52.194;9.900;2023-04-22T03:02:23;99771.34;;;11.64;100.00
14232;BME280;7200;52.194;9.900;2023-04-22T03:04:48;99789.97;;;11.79;100.00
14232;BME280;7200;52.194;9.900;2023-04-22T03:07:14;99774.31;;;11.76;100.00
14232;BME280;7200;52.194;9.900;2023-04-22T03:09:39;99753.84;;;11.62;100.00
14232;BME280;7200;52.194;9.900;2023-04-22T03:12:04;99792.31;;;11.85;100.00
14232;BME280;7200;52.194;9.900;2023-04-22T03:14:30;99777.25;;;11.87;100.00
14232;BME280;7200;52.194;9.900;2023-04-22T03:16:55;99781.06;;;11.81;100.00
14232;BME280;7200;52.194;9.900;2023-04-22T03:19:20;99765.53;;;11.58;100.00
14232;BME280;7200;52.194;9.900;2023-04-22T03:21:46;99777.50;;;11.65;100.00
14232;BME280;7200;52.194;9.900;2023-04-22T03:24:11;99766.75;;;11.50;100.00
14232;BME280;7200;52.194;9.900;2023-04-22T03:26:36;99760.53;;;11.17;100.00
14232;BME280;7200;52.194;9.900;2023-04-22T03:29:01;99770.50;;;11.29;100.00
14232;BME280;7200;52.194;9.900;2023-04-22T03:31:27;99810.91;;;11.66;100.00
14232;BME280;7200;52.194;9.900;2023-04-22T03:33:52;99793.50;;;11.62;100.00
14232;BME280;7200;52.194;9.900;2023-04-22T03:36:17;99789.28;;;11.75;100.00
14232;BME280;7200;52.194;9.900;2023-04-22T03:38:43;99771.88;;;11.71;100.00
14232;BME280;7200;52.194;9.900;2023-04-22T03:41:08;99763.84;;;11.57;100.00
14232;BME280;7200;52.194;9.900;2023-04-22T03:43:33;99773.81;;;11.67;100.00
14232;BME280;7200;52.194;9.900;2023-04-22T03:45:59;99729.94;;;11.30;100.00
14232;BME280;7200;52.194;9.900;2023-04-22T03:48:24;99758.69;;;11.36;100.00
14232;BME280;7200;52.194;9.900;2023-04-22T03:50:49;99753.19;;;11.23;100.00
14232;BME280;7200;52.194;9.900;2023-04-22T03:53:15;99763.09;;;11.18;100.00
14232;BME280;7200;52.194;9.900;2023-04-22T03:55:40;99770.38;;;11.13;100.00
14232;BME280;7200;52.194;9.900;2023-04-22T03:58:05;99780.91;;;11.32;100.00
14232;BME280;7200;52.194;9.900;2023-04-22T04:00:30;99792.97;;;11.38;100.00
14232;BME280;7200;52.194;9.900;2023-04-22T04:02:56;99799.34;;;11.51;100.00
14232;BME280;7200;52.194;9.900;2023-04-22T04:05:21;99801.41;;;11.62;100.00
14232;BME280;7200;52.194;9.900;2023-04-22T04:07:46;99803.91;;;11.65;100.00
14232;BME280;7200;52.194;9.900;2023-04-22T04:10:12;99812.22;;;11.75;100.00
14232;BME280;7200;52.194;9.900;2023-04-22T04:12:37;99808.59;;;11.77;100.00
14232;BME280;7200;52.194;9.900;2023-04-22T04:15:03;99797.47;;;11.71;100.00
14232;BME280;7200;52.194;9.900;2023-04-22T04:17:28;99806.09;;;11.74;100.00
14232;BME280;7200;52.194;9.900;2023-04-22T04:19:54;99805.38;;;11.71;100.00
14232;BME280;7200;52.194;9.900;2023-04-22T04:22:20;99781.75;;;11.67;100.00
14232;BME280;7200;52.194;9.900;2023-04-22T04:24:45;99773.94;;;11.66;100.00
14232;BME280;7200;52.194;9.900;2023-04-22T04:27:11;99774.91;;;11.63;100.00
14232;BME280;7200;52.194;9.900;2023-04-22T04:29:37;99785.34;;;11.66;100.00
14232;BME280;7200;52.194;9.900;2023-04-22T04:32:03;99777.63;;;11.62;100.00
14232;BME280;7200;52.194;9.900;2023-04-22T04:34:29;99790.44;;;11.69;100.00
14232;BME280;7200;52.194;9.900;2023-04-22T04:36:54;99797.47;;;11.71;100.00
14232;BME280;7200;52.194;9.900;2023-04-22T04:39:20;99797.06;;;11.78;100.00
14232;BME280;7200;52.194;9.900;2023-04-22T04:41:45;99793.94;;;11.87;100.00
14232;BME280;7200;52.194;9.900;2023-04-22T04:44:13;99742.50;;;11.77;100.00
14232;BME280;7200;52.194;9.900;2023-04-22T04:46:38;99758.06;;;11.66;100.00
14232;BME280;7200;52.194;9.900;2023-04-22T04:49:03;99788.50;;;11.73;100.00
14232;BME280;7200;52.194;9.900;2023-04-22T04:51:29;99826.75;;;12.01;100.00
14232;BME280;7200;52.194;9.900;2023-04-22T04:53:56;99814.50;;;12.00;100.00
14232;BME280;7200;52.194;9.900;2023-04-22T04:56:22;99811.59;;;12.04;100.00
14232;BME280;7200;52.194;9.900;2023-04-22T04:58:48;99812.75;;;12.16;100.00
14232;BME280;7200;52.194;9.900;2023-04-22T05:01:13;99804.50;;;12.22;100.00
14232;BME280;7200;52.194;9.900;2023-04-22T05:03:38;99810.03;;;12.34;100.00
14232;BME280;7200;52.194;9.900;2023-04-22T05:06:05;99814.75;;;12.44;100.00
14232;BME280;7200;52.194;9.900;2023-04-22T05:08:30;99807.78;;;12.59;100.00
14232;BME280;7200;52.194;9.900;2023-04-22T05:10:55;99811.72;;;12.68;100.00
14232;BME280;7200;52.194;9.900;2023-04-22T05:13:21;99811.91;;;12.81;100.00
14232;BME280;7200;52.194;9.900;2023-04-22T05:15:46;99819.91;;;12.95;100.00
14232;BME280;7200;52.194;9.900;2023-04-22T05:18:12;99820.34;;;13.03;100.00
14232;BME280;7200;52.194;9.900;2023-04-22T05:20:37;99826.22;;;13.24;100.00
14232;BME280;7200;52.194;9.900;2023-04-22T05:23:02;99813.41;;;13.33;100.00
14232;BME280;7200;52.194;9.900;2023-04-22T05:25:28;99795.63;;;13.35;100.00
14232;BME280;7200;52.194;9.900;2023-04-22T05:27:53;99797.06;;;13.40;100.00
14232;BME280;7200;52.194;9.900;2023-04-22T05:30:18;99807.13;;;13.50;100.00
14232;BME280;7200;52.194;9.900;2023-04-22T05:32:44;99806.75;;;13.56;100.00
14232;BME280;7200;52.194;9.900;2023-04-22T05:35:09;99807.66;;;13.71;100.00
14232;BME280;7200;52.194;9.900;2023-04-22T05:37:35;99810.44;;;13.83;100.00
14232;BME280;7200;52.194;9.900;2023-04-22T05:40:00;99806.69;;;14.02;100.00
14232;BME280;7200;52.194;9.900;2023-04-22T05:42:26;99814.63;;;14.16;100.00
14232;BME280;7200;52.194;9.900;2023-04-22T05:44:51;99800.91;;;14.24;100.00
14232;BME280;7200;52.194;9.900;2023-04-22T05:47:16;99801.28;;;14.32;100.00
14232;BME280;7200;52.194;9.900;2023-04-22T05:49:41;99778.63;;;14.41;100.00
14232;BME280;7200;52.194;9.900;2023-04-22T05:52:07;99789.44;;;14.52;100.00
14232;BME280;7200;52.194;9.900;2023-04-22T05:54:32;99792.16;;;14.65;100.00
14232;BME280;7200;52.194;9.900;2023-04-22T05:56:57;99809.31;;;14.74;100.00
14232;BME280;7200;52.194;9.900;2023-04-22T05:59:23;99812.16;;;14.85;100.00
14232;BME280;7200;52.194;9.900;2023-04-22T06:01:48;99805.59;;;14.91;100.00
14232;BME280;7200;52.194;9.900;2023-04-22T06:04:14;99801.84;;;15.08;100.00
14232;BME280;7200;52.194;9.900;2023-04-22T06:06:39;99804.22;;;15.25;100.00
14232;BME280;7200;52.194;9.900;2023-04-22T06:09:04;99805.13;;;15.38;100.00
14232;BME280;7200;52.194;9.900;2023-04-22T06:11:31;99797.19;;;15.51;100.00
14232;BME280;7200;52.194;9.900;2023-04-22T06:13:56;99791.25;;;15.61;100.00
14232;BME280;7200;52.194;9.900;2023-04-22T06:16:22;99767.41;;;15.59;100.00
14232;BME280;7200;52.194;9.900;2023-04-22T06:18:47;99788.22;;;15.80;100.00
14232;BME280;7200;52.194;9.900;2023-04-22T06:21:12;99801.63;;;15.91;100.00
14232;BME280;7200;52.194;9.900;2023-04-22T06:23:38;99814.31;;;16.13;100.00
14232;BME280;7200;52.194;9.900;2023-04-22T06:26:03;99782.78;;;16.20;100.00
14232;BME280;7200;52.194;9.900;2023-04-22T06:28:29;99767.88;;;16.30;100.00
14232;BME280;7200;52.194;9.900;2023-04-22T06:30:54;99784.69;;;16.43;100.00
14232;BME280;7200;52.194;9.900;2023-04-22T06:33:19;99780.44;;;16.41;100.00
14232;BME280;7200;52.194;9.900;2023-04-22T06:35:45;99797.63;;;16.73;100.00
14232;BME280;7200;52.194;9.900;2023-04-22T06:38:10;99775.94;;;16.91;100.00
14232;BME280;7200;52.194;9.900;2023-04-22T06:40:36;99778.72;;;17.13;100.00
14232;BME280;7200;52.194;9.900;2023-04-22T06:43:01;99781.56;;;17.23;100.00
14232;BME280;7200;52.194;9.900;2023-04-22T06:45:26;99760.00;;;17.26;100.00
14232;BME280;7200;52.194;9.900;2023-04-22T06:47:52;99774.41;;;17.48;100.00
14232;BME280;7200;52.194;9.900;2023-04-22T06:50:20;99769.28;;;17.45;100.00
14232;BME280;7200;52.194;9.900;2023-04-22T06:52:45;99764.34;;;17.63;100.00
14232;BME280;7200;52.194;9.900;2023-04-22T06:55:10;99738.88;;;17.59;100.00
14232;BME280;7200;52.194;9.900;2023-04-22T06:57:36;99741.34;;;17.73;100.00
14232;BME280;7200;52.194;9.900;2023-04-22T07:00:03;99743.69;;;17.89;100.00
14232;BME280;7200;52.194;9.900;2023-04-22T07:02:29;99730.94;;;17.81;100.00
14232;BME280;7200;52.194;9.900;2023-04-22T07:04:54;99749.78;;;18.14;100.00
14232;BME280;7200;52.194;9.900;2023-04-22T07:07:19;99747.38;;;18.11;100.00
14232;BME280;7200;52.194;9.900;2023-04-22T07:09:44;99776.63;;;18.35;100.00
14232;BME280;7200;52.194;9.900;2023-04-22T07:12:10;99783.16;;;18.42;100.00
14232;BME280;7200;52.194;9.900;2023-04-22T07:14:36;99793.84;;;18.42;100.00
14232;BME280;7200;52.194;9.900;2023-04-22T07:17:01;99804.16;;;18.58;100.00
14232;BME280;7200;52.194;9.900;2023-04-22T07:19:26;99784.63;;;18.68;100.00
14232;BME280;7200;52.194;9.900;2023-04-22T07:21:52;99770.38;;;18.68;100.00
14232;BME280;7200;52.194;9.900;2023-04-22T07:24:17;99738.00;;;18.50;100.00
14232;BME280;7200;52.194;9.900;2023-04-22T07:26:43;99732.03;;;18.58;100.00
14232;BME280;7200;52.194;9.900;2023-04-22T07:29:08;99752.75;;;18.88;100.00
14232;BME280;7200;52.194;9.900;2023-04-22T07:31:34;99893.53;;;20.18;100.00
14232;BME280;7200;52.194;9.900;2023-04-22T07:34:00;99742.88;;;19.53;100.00
14232;BME280;7200;52.194;9.900;2023-04-22T07:36:26;99704.13;;;19.69;100.00
14232;BME280;7200;52.194;9.900;2023-04-22T07:38:51;99711.50;;;19.76;100.00
14232;BME280;7200;52.194;9.900;2023-04-22T07:41:16;99718.94;;;19.52;100.00
14232;BME280;7200;52.194;9.900;2023-04-22T07:43:42;99687.50;;;19.44;100.00
14232;BME280;7200;52.194;9.900;2023-04-22T07:46:07;99682.28;;;19.42;100.00
14232;BME280;7200;52.194;9.900;2023-04-22T07:48:32;99696.00;;;19.59;100.00
14232;BME280;7200;52.194;9.900;2023-04-22T07:50:57;99693.94;;;19.41;100.00
14232;BME280;7200;52.194;9.900;2023-04-22T07:53:23;99738.38;;;19.33;100.00
14232;BME280;7200;52.194;9.900;2023-04-22T07:55:48;99735.13;;;19.50;100.00
14232;BME280;7200;52.194;9.900;2023-04-22T07:58:14;99758.09;;;19.74;100.00
14232;BME280;7200;52.194;9.900;2023-04-22T08:00:39;99718.28;;;19.80;100.00
14232;BME280;7200;52.194;9.900;2023-04-22T08:03:05;99687.44;;;19.55;100.00
14232;BME280;7200;52.194;9.900;2023-04-22T08:05:30;99715.19;;;19.85;100.00
14232;BME280;7200;52.194;9.900;2023-04-22T08:07:55;99716.81;;;19.97;100.00
14232;BME280;7200;52.194;9.900;2023-04-22T08:10:20;99688.69;;;20.13;100.00
14232;BME280;7200;52.194;9.900;2023-04-22T08:12:46;99681.13;;;20.18;100.00
14232;BME280;7200;52.194;9.900;2023-04-22T08:15:11;99678.81;;;20.13;100.00
14232;BME280;7200;52.194;9.900;2023-04-22T08:17:37;99695.13;;;20.41;100.00
14232;BME280;7200;52.194;9.900;2023-04-22T08:20:02;99679.19;;;20.39;100.00
14232;BME280;7200;52.194;9.900;2023-04-22T08:22:28;99664.69;;;20.52;100.00
14232;BME280;7200;52.194;9.900;2023-04-22T08:24:53;99703.72;;;20.85;100.00
14232;BME280;7200;52.194;9.900;2023-04-22T08:27:20;99672.91;;;20.70;100.00
14232;BME280;7200;52.194;9.900;2023-04-22T08:29:46;99694.09;;;20.73;100.00
14232;BME280;7200;52.194;9.900;2023-04-22T08:32:11;99676.91;;;21.05;100.00
14232;BME280;7200;52.194;9.900;2023-04-22T08:34:36;99707.81;;;20.99;100.00
14232;BME280;7200;52.194;9.900;2023-04-22T08:37:02;99671.41;;;20.96;100.00
14232;BME280;7200;52.194;9.900;2023-04-22T08:39:27;99698.03;;;21.08;100.00
14232;BME280;7200;52.194;9.900;2023-04-22T08:41:52;99746.03;;;21.30;100.00
14232;BME280;7200;52.194;9.900;2023-04-22T08:44:21;99741.69;;;21.49;100.00
14232;BME280;7200;52.194;9.900;2023-04-22T08:46:46;99715.50;;;21.80;100.00
14232;BME280;7200;52.194;9.900;2023-04-22T08:49:17;99693.34;;;21.68;99.58
14232;BME280;7200;52.194;9.900;2023-04-22T08:51:43;99733.34;;;21.62;100.00
14232;BME280;7200;52.194;9.900;2023-04-22T08:54:11;99696.34;;;21.55;100.00
14232;BME280;7200;52.194;9.900;2023-04-22T08:56:42;99706.94;;;21.57;100.00
14232;BME280;7200;52.194;9.900;2023-04-22T08:59:12;99726.53;;;21.67;100.00
14232;BME280;7200;52.194;9.900;2023-04-22T09:01:39;99706.59;;;21.70;100.00
14232;BME280;7200;52.194;9.900;2023-04-22T09:04:05;99726.66;;;21.75;100.00
14232;BME280;7200;52.194;9.900;2023-04-22T09:06:31;99695.88;;;22.07;99.64
14232;BME280;7200;52.194;9.900;2023-04-22T09:08:57;99645.00;;;22.33;94.16
14232;BME280;7200;52.194;9.900;2023-04-22T09:11:25;99607.91;;;21.91;93.80
14232;BME280;7200;52.194;9.900;2023-04-22T09:13:52;99686.47;;;21.93;98.58
14232;BME280;7200;52.194;9.900;2023-04-22T09:16:18;99612.72;;;22.15;92.69
14232;BME280;7200;52.194;9.900;2023-04-22T09:18:43;99638.28;;;22.47;91.64
14232;BME280;7200;52.194;9.900;2023-04-22T09:21:10;99680.91;;;22.42;95.16
14232;BME280;7200;52.194;9.900;2023-04-22T09:23:45;99682.94;;;22.30;96.77
14232;BME280;7200;52.194;9.900;2023-04-22T09:26:11;99729.50;;;22.49;99.13
14232;BME280;7200;52.194;9.900;2023-04-22T09:28:36;99722.44;;;22.76;98.36
14232;BME280;7200;52.194;9.900;2023-04-22T09:31:02;99749.13;;;22.87;100.00
14232;BME280;7200;52.194;9.900;2023-04-22T09:33:30;99676.53;;;22.77;96.94
14232;BME280;7200;52.194;9.900;2023-04-22T09:35:55;99665.19;;;22.83;96.21
14232;BME280;7200;52.194;9.900;2023-04-22T09:38:20;99668.31;;;22.79;96.14
14232;BME280;7200;52.194;9.900;2023-04-22T09:40:46;99638.44;;;22.64;95.77
14232;BME280;7200;52.194;9.900;2023-04-22T09:43:11;99697.47;;;22.83;97.11
14232;BME280;7200;52.194;9.900;2023-04-22T09:45:38;99658.56;;;22.60;97.32
14232;BME280;7200;52.194;9.900;2023-04-22T09:48:09;99631.78;;;22.68;94.78
14232;BME280;7200;52.194;9.900;2023-04-22T09:50:35;99651.97;;;22.90;94.59
14232;BME280;7200;52.194;9.900;2023-04-22T09:53:04;99681.63;;;22.98;96.12
14232;BME280;7200;52.194;9.900;2023-04-22T09:55:32;99637.66;;;23.07;92.49
14232;BME280;7200;52.194;9.900;2023-04-22T09:58:10;99637.13;;;23.22;91.58
14232;BME280;7200;52.194;9.900;2023-04-22T10:00:42;99626.59;;;23.10;91.91
14232;BME280;7200;52.194;9.900;2023-04-22T10:03:08;99640.06;;;23.10;92.19
14232;BME280;7200;52.194;9.900;2023-04-22T10:05:34;99617.91;;;23.17;90.76
14232;BME280;7200;52.194;9.900;2023-04-22T10:08:05;99587.84;;;23.21;88.33
14232;BME280;7200;52.194;9.900;2023-04-22T10:10:31;99566.34;;;23.03;88.76
14232;BME280;7200;52.194;9.900;2023-04-22T10:12:57;99667.91;;;23.45;92.09
14232;BME280;7200;52.194;9.900;2023-04-22T10:15:23;99543.34;;;23.35;85.93
14232;BME280;7200;52.194;9.900;2023-04-22T10:17:51;99588.63;;;23.40;86.66
14232;BME280;7200;52.194;9.900;2023-04-22T10:20:18;99593.78;;;23.33;87.21
14232;BME280;7200;52.194;9.900;2023-04-22T10:22:44;99508.03;;;23.38;81.17
14232;BME280;7200;52.194;9.900;2023-04-22T10:25:20;99601.16;;;23.57;86.25
14232;BME280;7200;52.194;9.900;2023-04-22T10:28:05;99696.84;;;23.96;90.97
14232;BME280;7200;52.194;9.900;2023-04-22T10:30:35;99687.47;;;24.08;91.03
14232;BME280;7200;52.194;9.900;2023-04-22T10:39:24;99635.97;;;24.70;84.12
14232;BME280;7200;52.194;9.900;2023-04-22T10:41:33;99573.59;;;24.57;82.20
14232;BME280;7200;52.194;9.900;2023-04-22T10:44:01;99582.59;;;24.31;82.45
14232;BME280;7200;52.194;9.900;2023-04-22T10:49:05;99654.91;;;24.36;85.54
14232;BME280;7200;52.194;9.900;2023-04-22T10:51:50;99664.38;;;24.48;86.74
14232;BME280;7200;52.194;9.900;2023-04-22T10:59:44;99578.66;;;24.09;82.21
14232;BME280;7200;52.194;9.900;2023-04-22T11:02:11;99566.31;;;23.82;82.98
14232;BME280;7200;52.194;9.900;2023-04-22T11:04:37;99593.31;;;23.98;83.32
14232;BME280;7200;52.194;9.900;2023-04-22T11:15:19;99604.03;;;23.90;83.90
14232;BME280;7200;52.194;9.900;2023-04-22T11:17:49;99579.63;;;23.92;83.82
14232;BME280;7200;52.194;9.900;2023-04-22T11:20:15;99551.53;;;23.94;82.11
14232;BME280;7200;52.194;9.900;2023-04-22T11:22:43;99553.34;;;23.85;82.21
14232;BME280;7200;52.194;9.900;2023-04-22T11:25:09;99585.19;;;23.90;85.60
14232;BME280;7200;52.194;9.900;2023-04-22T11:27:35;99564.41;;;24.17;82.35
14232;BME280;7200;52.194;9.900;2023-04-22T11:32:35;99665.44;;;24.55;86.33
14232;BME280;7200;52.194;9.900;2023-04-22T11:35:06;99577.91;;;24.49;83.47
14232;BME280;7200;52.194;9.900;2023-04-22T11:37:43;99657.19;;;24.73;86.60
14232;BME280;7200;52.194;9.900;2023-04-22T11:40:14;99653.16;;;24.77;87.78
14232;BME280;7200;52.194;9.900;2023-04-22T11:42:39;99603.75;;;24.60;85.89
14232;BME280;7200;52.194;9.900;2023-04-22T11:45:06;99681.34;;;24.83;90.26
14232;BME280;7200;52.194;9.900;2023-04-22T11:47:33;99567.28;;;24.48;86.22
14232;BME280;7200;52.194;9.900;2023-04-22T11:50:04;99520.94;;;24.44;81.79
14232;BME280;7200;52.194;9.900;2023-04-22T11:55:26;99560.03;;;24.40;85.00
14232;BME280;7200;52.194;9.900;2023-04-22T11:58:04;99550.66;;;24.53;83.43
14232;BME280;7200;52.194;9.900;2023-04-22T12:00:32;99612.88;;;24.76;84.24
14232;BME280;7200;52.194;9.900;2023-04-22T12:03:06;99557.91;;;24.60;83.50
14232;BME280;7200;52.194;9.900;2023-04-22T12:08:13;99577.28;;;24.97;84.22
14232;BME280;7200;52.194;9.900;2023-04-22T12:13:16;99630.91;;;25.33;85.34
14232;BME280;7200;52.194;9.900;2023-04-22T12:15:42;99564.06;;;25.18;82.71
14232;BME280;7200;52.194;9.900;2023-04-22T12:18:08;99570.66;;;25.40;81.20
14232;BME280;7200;52.194;9.900;2023-04-22T12:20:34;99535.88;;;25.45;78.04
14232;BME280;7200;52.194;9.900;2023-04-22T12:23:00;99508.25;;;25.11;80.01
14232;BME280;7200;52.194;9.900;2023-04-22T12:25:25;99509.75;;;25.21;77.81
14232;BME280;7200;52.194;9.900;2023-04-22T12:27:51;99507.91;;;25.30;77.90
14232;BME280;7200;52.194;9.900;2023-04-22T12:30:16;99630.06;;;25.49;84.34
14232;BME280;7200;52.194;9.900;2023-04-22T12:32:41;99528.28;;;25.49;79.43
14232;BME280;7200;52.194;9.900;2023-04-22T12:35:07;99580.25;;;25.91;77.06
14232;BME280;7200;52.194;9.900;2023-04-22T12:37:32;99524.09;;;25.78;77.24
14232;BME280;7200;52.194;9.900;2023-04-22T12:39:58;99437.91;;;25.60;71.13
14232;BME280;7200;52.194;9.900;2023-04-22T12:42:23;99254.69;;;24.94;66.54
14232;BME280;7200;52.194;9.900;2023-04-22T12:44:49;99370.72;;;25.34;66.15
14232;BME280;7200;52.194;9.900;2023-04-22T12:47:14;99438.44;;;25.55;68.03
14232;BME280;7200;52.194;9.900;2023-04-22T12:49:42;99448.22;;;25.56;70.27
14232;BME280;7200;52.194;9.900;2023-04-22T12:52:08;99508.22;;;25.75;73.44
14232;BME280;7200;52.194;9.900;2023-04-22T12:54:34;99524.03;;;25.86;73.22
14232;BME280;7200;52.194;9.900;2023-04-22T12:56:59;99499.38;;;25.89;70.88
14232;BME280;7200;52.194;9.900;2023-04-22T12:59:26;99456.47;;;25.94;68.27
14232;BME280;7200;52.194;9.900;2023-04-22T13:01:51;99400.94;;;26.07;63.64
14232;BME280;7200;52.194;9.900;2023-04-22T13:04:19;99340.00;;;25.81;61.66
14232;BME280;7200;52.194;9.900;2023-04-22T13:06:44;99472.78;;;26.01;66.71
14232;BME280;7200;52.194;9.900;2023-04-22T13:09:09;99523.22;;;26.17;70.08
14232;BME280;7200;52.194;9.900;2023-04-22T13:11:35;99322.06;;;25.42;65.11
14232;BME280;7200;52.194;9.900;2023-04-22T13:14:01;99441.38;;;25.77;68.30
14232;BME280;7200;52.194;9.900;2023-04-22T13:16:26;99419.28;;;25.65;68.08
14232;BME280;7200;52.194;9.900;2023-04-22T13:18:51;99442.19;;;25.77;67.56
14232;BME280;7200;52.194;9.900;2023-04-22T13:21:16;99469.31;;;25.92;68.38
14232;BME280;7200;52.194;9.900;2023-04-22T13:23:42;99436.97;;;26.07;66.04
14232;BME280;7200;52.194;9.900;2023-04-22T13:26:07;99393.19;;;25.80;65.82
14232;BME280;7200;52.194;9.900;2023-04-22T13:28:32;99317.22;;;25.37;64.33